sensor_id;sensor_type;location;lat;lon;timestamp;P1;durP1;ratioP1;P2;durP2;ratioP2
70899;SDS011;67902;52.154;5.430;2024-03-29T00:00:36;4.75;;;0.85;;
70899;SDS011;67902;52.154;5.430;2024-03-29T00:03:02;5.07;;;1.10;;
70899;SDS011;67902;52.154;5.430;2024-03-29T00:05:28;3.45;;;1.05;;
70899;SDS011;67902;52.154;5.430;2024-03-29T00:07:54;5.82;;;1.38;;
70899;SDS011;67902;52.154;5.430;2024-03-29T00:10:19;4.15;;;1.20;;
70899;SDS011;67902;52.154;5.430;2024-03-29T00:12:45;4.03;;;0.70;;
70899;SDS011;67902;52.154;5.430;2024-03-29T00:15:10;5.85;;;1.10;;
70899;SDS011;67902;52.154;5.430;2024-03-29T00:17:36;3.72;;;0.80;;
70899;SDS011;67902;52.154;5.430;2024-03-29T00:20:01;2.13;;;0.80;;
70899;SDS011;67902;52.154;5.430;2024-03-29T00:22:29;10.40;;;1.52;;
70899;SDS011;67902;52.154;5.430;2024-03-29T00:24:54;3.55;;;0.93;;
70899;SDS011;67902;52.154;5.430;2024-03-29T00:27:20;4.43;;;0.90;;
70899;SDS011;67902;52.154;5.430;2024-03-29T00:29:47;8.52;;;1.30;;
70899;SDS011;67902;52.154;5.430;2024-03-29T00:32:14;6.53;;;1.23;;
70899;SDS011;67902;52.154;5.430;2024-03-29T00:34:39;6.30;;;1.02;;
70899;SDS011;67902;52.154;5.430;2024-03-29T00:37:05;7.57;;;1.25;;
70899;SDS011;67902;52.154;5.430;2024-03-29T00:39:30;7.40;;;1.50;;
70899;SDS011;67902;52.154;5.430;2024-03-29T00:41:56;2.97;;;0.88;;
70899;SDS011;67902;52.154;5.430;2024-03-29T00:44:21;4.38;;;0.88;;
70899;SDS011;67902;52.154;5.430;2024-03-29T00:46:47;4.93;;;0.93;;
70899;SDS011;67902;52.154;5.430;2024-03-29T00:49:12;2.78;;;0.80;;
70899;SDS011;67902;52.154;5.430;2024-03-29T00:51:38;4.57;;;0.82;;
70899;SDS011;67902;52.154;5.430;2024-03-29T00:54:04;9.20;;;1.20;;
70899;SDS011;67902;52.154;5.430;2024-03-29T00:56:30;7.65;;;1.27;;
70899;SDS011;67902;52.154;5.430;2024-03-29T00:58:56;3.05;;;0.63;;
70899;SDS011;67902;52.154;5.430;2024-03-29T01:01:21;3.78;;;0.80;;
70899;SDS011;67902;52.154;5.430;2024-03-29T01:03:47;9.85;;;1.10;;
70899;SDS011;67902;52.154;5.430;2024-03-29T01:06:12;4.30;;;0.95;;
70899;SDS011;67902;52.154;5.430;2024-03-29T01:08:38;5.63;;;1.00;;
70899;SDS011;67902;52.154;5.430;2024-03-29T01:11:03;3.47;;;0.80;;
70899;SDS011;67902;52.154;5.430;2024-03-29T01:13:29;4.30;;;1.17;;
70899;SDS011;67902;52.154;5.430;2024-03-29T01:15:54;2.30;;;0.68;;
70899;SDS011;67902;52.154;5.430;2024-03-29T01:18:20;3.50;;;0.80;;
70899;SDS011;67902;52.154;5.430;2024-03-29T01:20:45;2.22;;;0.90;;
70899;SDS011;67902;52.154;5.430;2024-03-29T01:23:11;3.92;;;1.00;;
70899;SDS011;67902;52.154;5.430;2024-03-29T01:25:36;4.25;;;0.88;;
70899;SDS011;67902;52.154;5.430;2024-03-29T01:28:02;5.32;;;0.85;;
70899;SDS011;67902;52.154;5.430;2024-03-29T01:30:29;6.88;;;0.90;;
70899;SDS011;67902;52.154;5.430;2024-03-29T01:32:55;4.22;;;0.70;;
70899;SDS011;67902;52.154;5.430;2024-03-29T01:35:20;4.93;;;0.93;;
70899;SDS011;67902;52.154;5.430;2024-03-29T01:37:46;6.45;;;1.45;;
70899;SDS011;67902;52.154;5.430;2024-03-29T01:40:12;3.85;;;0.75;;
70899;SDS011;67902;52.154;5.430;2024-03-29T01:42:37;1.42;;;0.40;;
70899;SDS011;67902;52.154;5.430;2024-03-29T01:45:03;4.82;;;0.60;;
70899;SDS011;67902;52.154;5.430;2024-03-29T01:47:29;2.97;;;0.63;;
70899;SDS011;67902;52.154;5.430;2024-03-29T01:49:54;3.10;;;0.82;;
70899;SDS011;67902;52.154;5.430;2024-03-29T01:52:20;1.63;;;0.57;;
70899;SDS011;67902;52.154;5.430;2024-03-29T01:54:46;1.40;;;0.50;;
70899;SDS011;67902;52.154;5.430;2024-03-29T01:57:13;6.50;;;0.68;;
70899;SDS011;67902;52.154;5.430;2024-03-29T01:59:40;6.00;;;0.90;;
70899;SDS011;67902;52.154;5.430;2024-03-29T02:02:08;2.58;;;0.50;;
70899;SDS011;67902;52.154;5.430;2024-03-29T02:04:34;3.22;;;0.63;;
70899;SDS011;67902;52.154;5.430;2024-03-29T02:07:01;3.58;;;0.65;;
70899;SDS011;67902;52.154;5.430;2024-03-29T02:09:29;3.47;;;1.63;;
70899;SDS011;67902;52.154;5.430;2024-03-29T02:11:54;5.28;;;0.82;;
70899;SDS011;67902;52.154;5.430;2024-03-29T02:14:20;6.45;;;1.23;;
70899;SDS011;67902;52.154;5.430;2024-03-29T02:16:45;4.22;;;1.00;;
70899;SDS011;67902;52.154;5.430;2024-03-29T02:19:11;2.30;;;0.57;;
70899;SDS011;67902;52.154;5.430;2024-03-29T02:21:37;8.82;;;1.25;;
70899;SDS011;67902;52.154;5.430;2024-03-29T02:24:08;4.60;;;0.90;;
70899;SDS011;67902;52.154;5.430;2024-03-29T02:26:34;5.75;;;0.95;;
70899;SDS011;67902;52.154;5.430;2024-03-29T02:29:07;8.13;;;1.13;;
70899;SDS011;67902;52.154;5.430;2024-03-29T02:31:34;5.10;;;0.80;;
70899;SDS011;67902;52.154;5.430;2024-03-29T02:33:59;3.55;;;0.80;;
70899;SDS011;67902;52.154;5.430;2024-03-29T02:36:25;3.95;;;0.63;;
70899;SDS011;67902;52.154;5.430;2024-03-29T02:38:50;5.50;;;0.70;;
70899;SDS011;67902;52.154;5.430;2024-03-29T02:41:16;3.83;;;0.70;;
70899;SDS011;67902;52.154;5.430;2024-03-29T02:43:41;1.15;;;0.35;;
70899;SDS011;67902;52.154;5.430;2024-03-29T02:46:07;3.78;;;0.30;;
70899;SDS011;67902;52.154;5.430;2024-03-29T02:48:32;2.47;;;0.70;;
70899;SDS011;67902;52.154;5.430;2024-03-29T02:50:58;2.13;;;0.55;;
70899;SDS011;67902;52.154;5.430;2024-03-29T02:53:24;4.20;;;0.75;;
70899;SDS011;67902;52.154;5.430;2024-03-29T02:55:49;2.40;;;0.70;;
70899;SDS011;67902;52.154;5.430;2024-03-29T02:58:14;2.47;;;0.55;;
70899;SDS011;67902;52.154;5.430;2024-03-29T03:00:40;4.78;;;0.75;;
70899;SDS011;67902;52.154;5.430;2024-03-29T03:03:05;3.40;;;0.75;;
70899;SDS011;67902;52.154;5.430;2024-03-29T03:05:31;5.35;;;0.77;;
70899;SDS011;67902;52.154;5.430;2024-03-29T03:07:58;3.88;;;0.75;;
70899;SDS011;67902;52.154;5.430;2024-03-29T03:10:45;6.95;;;1.45;;
70899;SDS011;67902;52.154;5.430;2024-03-29T03:13:29;4.05;;;0.80;;
70899;SDS011;67902;52.154;5.430;2024-03-29T03:15:55;2.92;;;0.77;;
70899;SDS011;67902;52.154;5.430;2024-03-29T03:18:21;3.72;;;0.80;;
70899;SDS011;67902;52.154;5.430;2024-03-29T03:20:51;1.88;;;0.57;;
70899;SDS011;67902;52.154;5.430;2024-03-29T03:23:17;3.85;;;0.70;;
70899;SDS011;67902;52.154;5.430;2024-03-29T03:25:43;5.15;;;0.80;;
70899;SDS011;67902;52.154;5.430;2024-03-29T03:28:08;3.63;;;0.55;;
70899;SDS011;67902;52.154;5.430;2024-03-29T03:30:41;4.30;;;0.70;;
70899;SDS011;67902;52.154;5.430;2024-03-29T03:33:06;3.17;;;0.63;;
70899;SDS011;67902;52.154;5.430;2024-03-29T03:35:32;4.15;;;1.02;;
70899;SDS011;67902;52.154;5.430;2024-03-29T03:37:57;3.80;;;0.90;;
70899;SDS011;67902;52.154;5.430;2024-03-29T03:40:23;4.53;;;0.70;;
70899;SDS011;67902;52.154;5.430;2024-03-29T03:42:49;2.53;;;0.80;;
70899;SDS011;67902;52.154;5.430;2024-03-29T03:45:14;2.50;;;0.45;;
70899;SDS011;67902;52.154;5.430;2024-03-29T03:47:40;3.03;;;0.50;;
70899;SDS011;67902;52.154;5.430;2024-03-29T03:50:06;3.40;;;0.65;;
70899;SDS011;67902;52.154;5.430;2024-03-29T03:52:31;3.63;;;0.77;;
70899;SDS011;67902;52.154;5.430;2024-03-29T03:54:57;1.90;;;0.47;;
70899;SDS011;67902;52.154;5.430;2024-03-29T03:57:22;3.75;;;1.20;;
70899;SDS011;67902;52.154;5.430;2024-03-29T03:59:51;4.03;;;0.70;;
70899;SDS011;67902;52.154;5.430;2024-03-29T04:02:16;5.50;;;0.95;;
70899;SDS011;67902;52.154;5.430;2024-03-29T04:04:42;4.18;;;1.00;;
70899;SDS011;67902;52.154;5.430;2024-03-29T04:07:07;5.15;;;1.08;;
70899;SDS011;67902;52.154;5.430;2024-03-29T04:09:33;5.97;;;0.90;;
70899;SDS011;67902;52.154;5.430;2024-03-29T04:11:58;1.55;;;0.40;;
70899;SDS011;67902;52.154;5.430;2024-03-29T04:14:24;7.47;;;0.73;;
70899;SDS011;67902;52.154;5.430;2024-03-29T04:16:49;2.08;;;0.57;;
70899;SDS011;67902;52.154;5.430;2024-03-29T04:19:15;3.38;;;0.80;;
70899;SDS011;67902;52.154;5.430;2024-03-29T04:21:40;4.47;;;0.85;;
70899;SDS011;67902;52.154;5.430;2024-03-29T04:24:06;4.38;;;0.65;;
70899;SDS011;67902;52.154;5.430;2024-03-29T04:26:35;2.08;;;0.40;;
70899;SDS011;67902;52.154;5.430;2024-03-29T04:29:02;2.45;;;0.80;;
70899;SDS011;67902;52.154;5.430;2024-03-29T04:31:28;2.05;;;0.50;;
70899;SDS011;67902;52.154;5.430;2024-03-29T04:33:53;4.68;;;0.80;;
70899;SDS011;67902;52.154;5.430;2024-03-29T04:36:19;2.42;;;0.52;;
70899;SDS011;67902;52.154;5.430;2024-03-29T04:38:44;3.03;;;0.60;;
70899;SDS011;67902;52.154;5.430;2024-03-29T04:41:10;2.78;;;0.70;;
70899;SDS011;67902;52.154;5.430;2024-03-29T04:43:35;2.40;;;0.73;;
70899;SDS011;67902;52.154;5.430;2024-03-29T04:46:01;3.38;;;0.90;;
70899;SDS011;67902;52.154;5.430;2024-03-29T04:48:29;1.48;;;0.60;;
70899;SDS011;67902;52.154;5.430;2024-03-29T04:50:56;3.33;;;0.60;;
70899;SDS011;67902;52.154;5.430;2024-03-29T04:53:21;2.22;;;0.40;;
70899;SDS011;67902;52.154;5.430;2024-03-29T04:55:52;1.88;;;0.40;;
70899;SDS011;67902;52.154;5.430;2024-03-29T04:58:19;2.22;;;0.35;;
70899;SDS011;67902;52.154;5.430;2024-03-29T05:00:44;1.77;;;0.40;;
70899;SDS011;67902;52.154;5.430;2024-03-29T05:03:10;4.05;;;0.55;;
70899;SDS011;67902;52.154;5.430;2024-03-29T05:05:35;2.80;;;0.70;;
70899;SDS011;67902;52.154;5.430;2024-03-29T05:08:00;1.33;;;0.30;;
70899;SDS011;67902;52.154;5.430;2024-03-29T05:10:26;0.98;;;0.45;;
70899;SDS011;67902;52.154;5.430;2024-03-29T05:12:51;2.10;;;0.40;;
70899;SDS011;67902;52.154;5.430;2024-03-29T05:15:19;1.60;;;0.60;;
70899;SDS011;67902;52.154;5.430;2024-03-29T05:17:44;1.30;;;0.30;;
70899;SDS011;67902;52.154;5.430;2024-03-29T05:20:10;0.75;;;0.30;;
70899;SDS011;67902;52.154;5.430;2024-03-29T05:22:36;1.63;;;0.32;;
70899;SDS011;67902;52.154;5.430;2024-03-29T05:25:01;1.25;;;0.40;;
70899;SDS011;67902;52.154;5.430;2024-03-29T05:27:28;3.33;;;0.50;;
70899;SDS011;67902;52.154;5.430;2024-03-29T05:29:54;1.45;;;0.40;;
70899;SDS011;67902;52.154;5.430;2024-03-29T05:32:19;7.68;;;0.88;;
70899;SDS011;67902;52.154;5.430;2024-03-29T05:34:45;2.15;;;0.17;;
70899;SDS011;67902;52.154;5.430;2024-03-29T05:37:12;3.17;;;0.60;;
70899;SDS011;67902;52.154;5.430;2024-03-29T05:39:37;9.95;;;0.95;;
70899;SDS011;67902;52.154;5.430;2024-03-29T05:42:03;3.92;;;0.80;;
70899;SDS011;67902;52.154;5.430;2024-03-29T05:44:28;2.97;;;0.80;;
70899;SDS011;67902;52.154;5.430;2024-03-29T05:46:54;3.72;;;0.80;;
70899;SDS011;67902;52.154;5.430;2024-03-29T05:49:19;2.45;;;0.63;;
70899;SDS011;67902;52.154;5.430;2024-03-29T05:51:45;2.05;;;0.50;;
70899;SDS011;67902;52.154;5.430;2024-03-29T05:54:11;2.78;;;0.63;;
70899;SDS011;67902;52.154;5.430;2024-03-29T05:56:36;2.17;;;0.82;;
70899;SDS011;67902;52.154;5.430;2024-03-29T05:59:02;3.75;;;1.02;;
70899;SDS011;67902;52.154;5.430;2024-03-29T06:01:28;2.22;;;0.60;;
70899;SDS011;67902;52.154;5.430;2024-03-29T06:03:55;2.97;;;0.80;;
70899;SDS011;67902;52.154;5.430;2024-03-29T06:06:21;5.78;;;1.13;;
70899;SDS011;67902;52.154;5.430;2024-03-29T06:08:53;2.28;;;0.63;;
70899;SDS011;67902;52.154;5.430;2024-03-29T06:11:18;4.38;;;0.63;;
70899;SDS011;67902;52.154;5.430;2024-03-29T06:13:44;2.08;;;0.68;;
70899;SDS011;67902;52.154;5.430;2024-03-29T06:16:21;2.53;;;0.60;;
70899;SDS011;67902;52.154;5.430;2024-03-29T06:19:08;4.40;;;0.85;;
70899;SDS011;67902;52.154;5.430;2024-03-29T06:21:33;3.95;;;0.40;;
70899;SDS011;67902;52.154;5.430;2024-03-29T06:24:13;5.70;;;1.38;;
70899;SDS011;67902;52.154;5.430;2024-03-29T06:26:39;2.05;;;0.55;;
70899;SDS011;67902;52.154;5.430;2024-03-29T06:29:05;1.75;;;0.60;;
70899;SDS011;67902;52.154;5.430;2024-03-29T06:31:31;4.10;;;0.90;;
70899;SDS011;67902;52.154;5.430;2024-03-29T06:34:00;4.40;;;0.88;;
70899;SDS011;67902;52.154;5.430;2024-03-29T06:36:25;5.10;;;0.98;;
70899;SDS011;67902;52.154;5.430;2024-03-29T06:38:51;3.97;;;1.48;;
70899;SDS011;67902;52.154;5.430;2024-03-29T06:41:17;0.47;;;0.25;;
70899;SDS011;67902;52.154;5.430;2024-03-29T06:43:43;5.57;;;0.80;;
70899;SDS011;67902;52.154;5.430;2024-03-29T06:46:10;0.70;;;0.30;;
70899;SDS011;67902;52.154;5.430;2024-03-29T06:48:36;1.75;;;0.80;;
70899;SDS011;67902;52.154;5.430;2024-03-29T06:51:02;1.38;;;0.47;;
70899;SDS011;67902;52.154;5.430;2024-03-29T06:53:28;5.70;;;0.80;;
70899;SDS011;67902;52.154;5.430;2024-03-29T06:55:57;2.17;;;0.68;;
70899;SDS011;67902;52.154;5.430;2024-03-29T06:58:24;1.10;;;0.40;;
70899;SDS011;67902;52.154;5.430;2024-03-29T07:00:50;2.05;;;0.52;;
70899;SDS011;67902;52.154;5.430;2024-03-29T07:03:16;4.57;;;0.70;;
70899;SDS011;67902;52.154;5.430;2024-03-29T07:05:45;3.17;;;0.70;;
70899;SDS011;67902;52.154;5.430;2024-03-29T07:08:11;2.65;;;0.82;;
70899;SDS011;67902;52.154;5.430;2024-03-29T07:10:36;5.15;;;0.88;;
70899;SDS011;67902;52.154;5.430;2024-03-29T07:13:03;3.65;;;0.80;;
70899;SDS011;67902;52.154;5.430;2024-03-29T07:15:29;3.88;;;0.80;;
70899;SDS011;67902;52.154;5.430;2024-03-29T07:17:54;1.85;;;0.60;;
70899;SDS011;67902;52.154;5.430;2024-03-29T07:20:20;2.97;;;0.50;;
70899;SDS011;67902;52.154;5.430;2024-03-29T07:22:45;2.25;;;0.60;;
70899;SDS011;67902;52.154;5.430;2024-03-29T07:25:11;1.58;;;0.55;;
70899;SDS011;67902;52.154;5.430;2024-03-29T07:27:36;2.28;;;0.68;;
70899;SDS011;67902;52.154;5.430;2024-03-29T07:30:02;3.13;;;0.75;;
70899;SDS011;67902;52.154;5.430;2024-03-29T07:32:29;4.82;;;0.85;;
70899;SDS011;67902;52.154;5.430;2024-03-29T07:34:55;3.55;;;0.60;;
70899;SDS011;67902;52.154;5.430;2024-03-29T07:37:23;3.40;;;0.80;;
70899;SDS011;67902;52.154;5.430;2024-03-29T07:39:49;1.65;;;0.50;;
70899;SDS011;67902;52.154;5.430;2024-03-29T07:42:15;2.45;;;0.63;;
70899;SDS011;67902;52.154;5.430;2024-03-29T07:44:41;2.80;;;0.60;;
70899;SDS011;67902;52.154;5.430;2024-03-29T07:47:07;2.85;;;0.63;;
70899;SDS011;67902;52.154;5.430;2024-03-29T07:49:33;1.23;;;0.50;;
70899;SDS011;67902;52.154;5.430;2024-03-29T07:51:58;2.55;;;0.60;;
70899;SDS011;67902;52.154;5.430;2024-03-29T07:54:25;2.17;;;0.57;;
70899;SDS011;67902;52.154;5.430;2024-03-29T07:56:50;5.32;;;1.00;;
70899;SDS011;67902;52.154;5.430;2024-03-29T07:59:16;3.38;;;0.63;;
70899;SDS011;67902;52.154;5.430;2024-03-29T08:01:44;2.67;;;0.80;;
70899;SDS011;67902;52.154;5.430;2024-03-29T08:04:10;2.22;;;0.70;;
70899;SDS011;67902;52.154;5.430;2024-03-29T08:06:35;2.97;;;0.90;;
70899;SDS011;67902;52.154;5.430;2024-03-29T08:09:01;4.10;;;0.88;;
70899;SDS011;67902;52.154;5.430;2024-03-29T08:11:26;2.08;;;0.70;;
70899;SDS011;67902;52.154;5.430;2024-03-29T08:13:51;4.72;;;0.80;;
70899;SDS011;67902;52.154;5.430;2024-03-29T08:16:17;0.90;;;0.40;;
70899;SDS011;67902;52.154;5.430;2024-03-29T08:18:45;1.75;;;0.55;;
70899;SDS011;67902;52.154;5.430;2024-03-29T08:21:11;1.45;;;0.55;;
70899;SDS011;67902;52.154;5.430;2024-03-29T08:23:38;3.35;;;0.80;;
70899;SDS011;67902;52.154;5.430;2024-03-29T08:26:05;2.08;;;0.60;;
70899;SDS011;67902;52.154;5.430;2024-03-29T08:28:31;4.50;;;0.73;;
70899;SDS011;67902;52.154;5.430;2024-03-29T08:30:57;1.25;;;0.52;;
70899;SDS011;67902;52.154;5.430;2024-03-29T08:33:23;1.52;;;0.43;;
70899;SDS011;67902;52.154;5.430;2024-03-29T08:35:49;3.60;;;0.65;;
70899;SDS011;67902;52.154;5.430;2024-03-29T08:38:15;1.77;;;0.52;;
70899;SDS011;67902;52.154;5.430;2024-03-29T08:40:41;1.88;;;0.43;;
70899;SDS011;67902;52.154;5.430;2024-03-29T08:43:08;1.88;;;0.60;;
70899;SDS011;67902;52.154;5.430;2024-03-29T08:45:34;1.02;;;0.40;;
70899;SDS011;67902;52.154;5.430;2024-03-29T08:48:06;1.85;;;0.50;;
70899;SDS011;67902;52.154;5.430;2024-03-29T08:50:33;2.60;;;0.60;;
70899;SDS011;67902;52.154;5.430;2024-03-29T08:52:59;3.53;;;0.70;;
70899;SDS011;67902;52.154;5.430;2024-03-29T08:55:25;1.52;;;0.60;;
70899;SDS011;67902;52.154;5.430;2024-03-29T08:57:51;1.90;;;0.45;;
70899;SDS011;67902;52.154;5.430;2024-03-29T09:00:16;4.30;;;0.52;;
70899;SDS011;67902;52.154;5.430;2024-03-29T09:02:42;1.67;;;0.60;;
70899;SDS011;67902;52.154;5.430;2024-03-29T09:05:07;2.38;;;0.77;;
70899;SDS011;67902;52.154;5.430;2024-03-29T09:07:33;1.77;;;0.43;;
70899;SDS011;67902;52.154;5.430;2024-03-29T09:09:59;1.42;;;0.60;;
70899;SDS011;67902;52.154;5.430;2024-03-29T09:12:25;1.95;;;0.55;;
70899;SDS011;67902;52.154;5.430;2024-03-29T09:14:51;2.65;;;0.80;;
70899;SDS011;67902;52.154;5.430;2024-03-29T09:17:17;3.53;;;0.65;;
70899;SDS011;67902;52.154;5.430;2024-03-29T09:19:43;1.60;;;0.43;;
70899;SDS011;67902;52.154;5.430;2024-03-29T09:22:08;1.75;;;0.52;;
70899;SDS011;67902;52.154;5.430;2024-03-29T09:24:34;3.65;;;0.77;;
70899;SDS011;67902;52.154;5.430;2024-03-29T09:27:00;6.10;;;0.80;;
70899;SDS011;67902;52.154;5.430;2024-03-29T09:29:25;3.22;;;0.82;;
70899;SDS011;67902;52.154;5.430;2024-03-29T09:31:51;3.58;;;0.80;;
70899;SDS011;67902;52.154;5.430;2024-03-29T09:34:17;3.28;;;0.65;;
70899;SDS011;67902;52.154;5.430;2024-03-29T09:36:42;3.35;;;0.75;;
70899;SDS011;67902;52.154;5.430;2024-03-29T09:39:07;5.43;;;0.73;;
70899;SDS011;67902;52.154;5.430;2024-03-29T09:41:34;3.25;;;0.77;;
70899;SDS011;67902;52.154;5.430;2024-03-29T09:44:03;3.00;;;0.80;;
70899;SDS011;67902;52.154;5.430;2024-03-29T09:46:31;3.58;;;0.90;;
70899;SDS011;67902;52.154;5.430;2024-03-29T09:48:58;1.60;;;0.50;;
70899;SDS011;67902;52.154;5.430;2024-03-29T09:51:24;4.15;;;0.57;;
70899;SDS011;67902;52.154;5.430;2024-03-29T09:53:51;3.05;;;0.82;;
70899;SDS011;67902;52.154;5.430;2024-03-29T09:56:16;4.90;;;0.90;;
70899;SDS011;67902;52.154;5.430;2024-03-29T09:58:42;4.38;;;0.90;;
70899;SDS011;67902;52.154;5.430;2024-03-29T10:01:08;5.22;;;1.08;;
70899;SDS011;67902;52.154;5.430;2024-03-29T10:03:42;3.10;;;1.00;;
70899;SDS011;67902;52.154;5.430;2024-03-29T10:06:13;5.93;;;1.10;;
70899;SDS011;67902;52.154;5.430;2024-03-29T10:08:39;2.47;;;0.75;;
70899;SDS011;67902;52.154;5.430;2024-03-29T10:11:05;4.93;;;1.30;;
70899;SDS011;67902;52.154;5.430;2024-03-29T10:13:31;3.20;;;0.90;;
70899;SDS011;67902;52.154;5.430;2024-03-29T10:15:56;3.58;;;1.20;;
70899;SDS011;67902;52.154;5.430;2024-03-29T10:18:22;2.78;;;0.80;;
70899;SDS011;67902;52.154;5.430;2024-03-29T10:20:59;2.80;;;0.98;;
70899;SDS011;67902;52.154;5.430;2024-03-29T10:23:32;4.45;;;0.90;;
70899;SDS011;67902;52.154;5.430;2024-03-29T10:28:27;5.40;;;1.30;;
70899;SDS011;67902;52.154;5.430;2024-03-29T10:30:56;4.20;;;1.00;;
70899;SDS011;67902;52.154;5.430;2024-03-29T10:33:21;2.03;;;0.82;;
70899;SDS011;67902;52.154;5.430;2024-03-29T10:35:47;2.97;;;0.93;;
70899;SDS011;67902;52.154;5.430;2024-03-29T10:38:12;4.65;;;1.00;;
70899;SDS011;67902;52.154;5.430;2024-03-29T10:40:38;5.57;;;0.90;;
70899;SDS011;67902;52.154;5.430;2024-03-29T10:43:10;2.30;;;0.75;;
70899;SDS011;67902;52.154;5.430;2024-03-29T10:45:41;2.78;;;0.85;;
70899;SDS011;67902;52.154;5.430;2024-03-29T10:48:08;3.00;;;0.80;;
70899;SDS011;67902;52.154;5.430;2024-03-29T10:53:01;1.90;;;0.70;;
70899;SDS011;67902;52.154;5.430;2024-03-29T10:55:37;3.75;;;0.90;;
70899;SDS011;67902;52.154;5.430;2024-03-29T10:58:03;2.97;;;1.00;;
70899;SDS011;67902;52.154;5.430;2024-03-29T11:00:33;4.80;;;1.20;;
70899;SDS011;67902;52.154;5.430;2024-03-29T11:03:17;3.03;;;0.90;;
70899;SDS011;67902;52.154;5.430;2024-03-29T11:05:54;2.40;;;0.90;;
70899;SDS011;67902;52.154;5.430;2024-03-29T11:08:26;4.28;;;1.13;;
70899;SDS011;67902;52.154;5.430;2024-03-29T11:10:57;6.53;;;1.15;;
70899;SDS011;67902;52.154;5.430;2024-03-29T11:16:20;3.95;;;0.90;;
70899;SDS011;67902;52.154;5.430;2024-03-29T11:18:45;3.58;;;1.15;;
70899;SDS011;67902;52.154;5.430;2024-03-29T11:21:16;5.68;;;1.30;;
70899;SDS011;67902;52.154;5.430;2024-03-29T11:23:49;4.95;;;1.08;;
70899;SDS011;67902;52.154;5.430;2024-03-29T11:26:16;3.42;;;1.25;;
70899;SDS011;67902;52.154;5.430;2024-03-29T11:28:47;3.78;;;1.27;;
70899;SDS011;67902;52.154;5.430;2024-03-29T11:31:16;4.45;;;1.13;;
70899;SDS011;67902;52.154;5.430;2024-03-29T11:38:48;4.38;;;1.20;;
70899;SDS011;67902;52.154;5.430;2024-03-29T11:41:15;5.95;;;1.10;;
70899;SDS011;67902;52.154;5.430;2024-03-29T11:43:41;2.50;;;1.02;;
70899;SDS011;67902;52.154;5.430;2024-03-29T11:46:09;3.75;;;0.95;;
70899;SDS011;67902;52.154;5.430;2024-03-29T11:48:35;2.95;;;0.90;;
70899;SDS011;67902;52.154;5.430;2024-03-29T11:51:02;3.78;;;0.98;;
70899;SDS011;67902;52.154;5.430;2024-03-29T11:53:30;3.90;;;1.15;;
70899;SDS011;67902;52.154;5.430;2024-03-29T11:55:59;4.43;;;1.20;;
70899;SDS011;67902;52.154;5.430;2024-03-29T11:58:26;11.02;;;1.20;;
70899;SDS011;67902;52.154;5.430;2024-03-29T12:00:54;2.45;;;1.05;;
70899;SDS011;67902;52.154;5.430;2024-03-29T12:03:21;4.28;;;1.10;;
70899;SDS011;67902;52.154;5.430;2024-03-29T12:05:48;13.98;;;1.95;;
70899;SDS011;67902;52.154;5.430;2024-03-29T12:08:15;3.90;;;1.20;;
70899;SDS011;67902;52.154;5.430;2024-03-29T12:10:41;3.65;;;0.90;;
70899;SDS011;67902;52.154;5.430;2024-03-29T12:13:07;4.40;;;1.13;;
70899;SDS011;67902;52.154;5.430;2024-03-29T12:15:34;4.40;;;1.05;;
70899;SDS011;67902;52.154;5.430;2024-03-29T12:18:01;2.88;;;1.00;;
70899;SDS011;67902;52.154;5.430;2024-03-29T12:20:33;5.07;;;1.20;;
70899;SDS011;67902;52.154;5.430;2024-03-29T12:23:05;2.83;;;0.98;;
70899;SDS011;67902;52.154;5.430;2024-03-29T12:25:32;3.63;;;1.20;;
70899;SDS011;67902;52.154;5.430;2024-03-29T12:27:58;3.92;;;1.20;;
70899;SDS011;67902;52.154;5.430;2024-03-29T12:30:25;3.92;;;1.17;;
70899;SDS011;67902;52.154;5.430;2024-03-29T12:33:01;3.00;;;0.90;;
70899;SDS011;67902;52.154;5.430;2024-03-29T12:35:39;3.60;;;1.15;;
70899;SDS011;67902;52.154;5.430;2024-03-29T12:38:07;5.45;;;1.80;;
70899;SDS011;67902;52.154;5.430;2024-03-29T12:40:33;4.10;;;1.38;;
70899;SDS011;67902;52.154;5.430;2024-03-29T12:43:07;4.03;;;1.48;;
70899;SDS011;67902;52.154;5.430;2024-03-29T12:45:38;3.25;;;1.45;;
70899;SDS011;67902;52.154;5.430;2024-03-29T12:48:11;5.03;;;1.50;;
70899;SDS011;67902;52.154;5.430;2024-03-29T12:50:41;5.30;;;1.63;;
70899;SDS011;67902;52.154;5.430;2024-03-29T12:53:08;3.65;;;1.58;;
70899;SDS011;67902;52.154;5.430;2024-03-29T12:55:35;4.25;;;1.60;;
70899;SDS011;67902;52.154;5.430;2024-03-29T12:58:01;4.80;;;1.33;;
70899;SDS011;67902;52.154;5.430;2024-03-29T13:00:30;4.55;;;1.63;;
70899;SDS011;67902;52.154;5.430;2024-03-29T13:02:56;4.00;;;1.50;;
70899;SDS011;67902;52.154;5.430;2024-03-29T13:05:22;4.78;;;2.00;;
70899;SDS011;67902;52.154;5.430;2024-03-29T13:07:48;4.28;;;1.65;;
70899;SDS011;67902;52.154;5.430;2024-03-29T13:10:14;5.60;;;2.05;;
70899;SDS011;67902;52.154;5.430;2024-03-29T13:12:45;6.57;;;1.80;;
70899;SDS011;67902;52.154;5.430;2024-03-29T13:15:17;6.22;;;1.65;;
70899;SDS011;67902;52.154;5.430;2024-03-29T13:17:44;5.88;;;1.73;;
70899;SDS011;67902;52.154;5.430;2024-03-29T13:20:11;5.53;;;1.60;;
70899;SDS011;67902;52.154;5.430;2024-03-29T13:22:37;5.18;;;2.00;;
70899;SDS011;67902;52.154;5.430;2024-03-29T13:25:03;5.38;;;1.70;;
70899;SDS011;67902;52.154;5.430;2024-03-29T13:27:30;5.47;;;1.90;;
70899;SDS011;67902;52.154;5.430;2024-03-29T13:29:56;4.28;;;1.70;;
70899;SDS011;67902;52.154;5.430;2024-03-29T13:32:21;5.90;;;1.55;;
70899;SDS011;67902;52.154;5.430;2024-03-29T13:34:47;6.95;;;1.88;;
70899;SDS011;67902;52.154;5.430;2024-03-29T13:37:13;5.13;;;1.50;;
70899;SDS011;67902;52.154;5.430;2024-03-29T13:39:38;4.78;;;1.70;;
70899;SDS011;67902;52.154;5.430;2024-03-29T13:42:04;3.58;;;1.35;;
70899;SDS011;67902;52.154;5.430;2024-03-29T13:44:30;6.45;;;1.75;;
70899;SDS011;67902;52.154;5.430;2024-03-29T13:46:55;4.50;;;1.38;;
70899;SDS011;67902;52.154;5.430;2024-03-29T13:49:20;6.18;;;1.52;;
70899;SDS011;67902;52.154;5.430;2024-03-29T13:51:46;5.72;;;1.60;;
70899;SDS011;67902;52.154;5.430;2024-03-29T13:54:12;3.55;;;1.30;;
70899;SDS011;67902;52.154;5.430;2024-03-29T13:56:38;4.43;;;1.40;;
70899;SDS011;67902;52.154;5.430;2024-03-29T13:59:04;3.88;;;1.40;;
70899;SDS011;67902;52.154;5.430;2024-03-29T14:01:29;4.20;;;1.40;;
70899;SDS011;67902;52.154;5.430;2024-03-29T14:03:55;5.18;;;1.45;;
70899;SDS011;67902;52.154;5.430;2024-03-29T14:06:20;7.88;;;1.52;;
70899;SDS011;67902;52.154;5.430;2024-03-29T14:08:46;3.80;;;1.27;;
70899;SDS011;67902;52.154;5.430;2024-03-29T14:11:12;5.47;;;1.70;;
70899;SDS011;67902;52.154;5.430;2024-03-29T14:13:39;4.00;;;1.13;;
70899;SDS011;67902;52.154;5.430;2024-03-29T14:16:05;2.95;;;1.05;;
70899;SDS011;67902;52.154;5.430;2024-03-29T14:18:31;3.35;;;1.10;;
70899;SDS011;67902;52.154;5.430;2024-03-29T14:20:56;4.30;;;1.10;;
70899;SDS011;67902;52.154;5.430;2024-03-29T14:23:22;5.15;;;1.20;;
70899;SDS011;67902;52.154;5.430;2024-03-29T14:25:50;4.03;;;1.00;;
70899;SDS011;67902;52.154;5.430;2024-03-29T14:28:16;2.88;;;1.00;;
70899;SDS011;67902;52.154;5.430;2024-03-29T14:30:42;3.13;;;1.00;;
70899;SDS011;67902;52.154;5.430;2024-03-29T14:33:07;4.15;;;0.90;;
70899;SDS011;67902;52.154;5.430;2024-03-29T14:35:36;6.13;;;1.10;;
70899;SDS011;67902;52.154;5.430;2024-03-29T14:38:02;3.47;;;1.00;;
70899;SDS011;67902;52.154;5.430;2024-03-29T14:40:27;4.32;;;0.98;;
70899;SDS011;67902;52.154;5.430;2024-03-29T14:42:53;3.17;;;0.93;;
70899;SDS011;67902;52.154;5.430;2024-03-29T14:45:24;2.65;;;0.77;;
70899;SDS011;67902;52.154;5.430;2024-03-29T14:47:50;2.28;;;0.70;;
70899;SDS011;67902;52.154;5.430;2024-03-29T14:50:16;3.13;;;0.80;;
70899;SDS011;67902;52.154;5.430;2024-03-29T14:52:44;4.00;;;1.48;;
70899;SDS011;67902;52.154;5.430;2024-03-29T14:55:09;1.60;;;0.70;;
70899;SDS011;67902;52.154;5.430;2024-03-29T14:57:35;2.53;;;0.70;;